sensor_id;sensor_type;location;lat;lon;timestamp;temperature;humidity
70244;DHT22;57634;51.136;17.024;2022-10-16T00:00:56;14.60;85.00
70244;DHT22;57634;51.136;17.024;2022-10-16T00:04:03;14.70;85.00
70244;DHT22;57634;51.136;17.024;2022-10-16T00:07:31;14.70;84.80
70244;DHT22;57634;51.136;17.024;2022-10-16T00:10:33;14.70;85.00
70244;DHT22;57634;51.136;17.024;2022-10-16T00:13:36;14.70;85.10
70244;DHT22;57634;51.136;17.024;2022-10-16T00:16:38;14.70;85.20
70244;DHT22;57634;51.136;17.024;2022-10-16T00:19:40;14.60;85.10
70244;DHT22;57634;51.136;17.024;2022-10-16T00:22:41;14.60;85.00
70244;DHT22;57634;51.136;17.024;2022-10-16T00:25:42;14.60;85.20
70244;DHT22;57634;51.136;17.024;2022-10-16T00:28:46;14.50;85.30
70244;DHT22;57634;51.136;17.024;2022-10-16T00:31:48;14.50;85.40
70244;DHT22;57634;51.136;17.024;2022-10-16T00:34:49;14.50;85.50
70244;DHT22;57634;51.136;17.024;2022-10-16T00:37:50;14.50;85.60
70244;DHT22;57634;51.136;17.024;2022-10-16T00:40:52;14.50;85.80
70244;DHT22;57634;51.136;17.024;2022-10-16T00:43:55;14.50;85.80
70244;DHT22;57634;51.136;17.024;2022-10-16T00:47:31;14.60;85.80
70244;DHT22;57634;51.136;17.024;2022-10-16T00:50:34;14.60;85.80
70244;DHT22;57634;51.136;17.024;2022-10-16T00:53:36;14.60;85.70
70244;DHT22;57634;51.136;17.024;2022-10-16T00:56:37;14.60;85.70
70244;DHT22;57634;51.136;17.024;2022-10-16T00:59:40;14.60;85.60
70244;DHT22;57634;51.136;17.024;2022-10-16T01:02:42;14.70;85.50
70244;DHT22;57634;51.136;17.024;2022-10-16T01:05:51;14.60;85.40
70244;DHT22;57634;51.136;17.024;2022-10-16T01:15:55;14.60;85.20
70244;DHT22;57634;51.136;17.024;2022-10-16T01:22:16;14.60;85.20
70244;DHT22;57634;51.136;17.024;2022-10-16T01:32:19;14.70;85.10
70244;DHT22;57634;51.136;17.024;2022-10-16T01:35:27;14.70;84.90
70244;DHT22;57634;51.136;17.024;2022-10-16T01:38:36;14.70;84.80
70244;DHT22;57634;51.136;17.024;2022-10-16T01:41:48;14.70;84.90
70244;DHT22;57634;51.136;17.024;2022-10-16T01:45:17;14.70;84.90
70244;DHT22;57634;51.136;17.024;2022-10-16T01:48:21;14.70;85.00
70244;DHT22;57634;51.136;17.024;2022-10-16T01:51:25;14.70;85.10
70244;DHT22;57634;51.136;17.024;2022-10-16T01:54:30;14.70;85.00
70244;DHT22;57634;51.136;17.024;2022-10-16T01:57:36;14.70;85.00
70244;DHT22;57634;51.136;17.024;2022-10-16T02:00:43;14.70;84.90
70244;DHT22;57634;51.136;17.024;2022-10-16T02:03:46;14.70;84.90
70244;DHT22;57634;51.136;17.024;2022-10-16T02:06:52;14.70;84.80
70244;DHT22;57634;51.136;17.024;2022-10-16T02:10:21;14.70;84.80
70244;DHT22;57634;51.136;17.024;2022-10-16T02:14:11;14.70;84.90
70244;DHT22;57634;51.136;17.024;2022-10-16T02:16:44;14.70;84.90
70244;DHT22;57634;51.136;17.024;2022-10-16T02:19:48;14.70;84.80
70244;DHT22;57634;51.136;17.024;2022-10-16T02:22:52;14.70;84.80
70244;DHT22;57634;51.136;17.024;2022-10-16T02:25:58;14.70;84.70
70244;DHT22;57634;51.136;17.024;2022-10-16T02:29:04;14.70;84.80
70244;DHT22;57634;51.136;17.024;2022-10-16T02:32:37;14.80;84.80
70244;DHT22;57634;51.136;17.024;2022-10-16T02:35:40;14.80;84.70
70244;DHT22;57634;51.136;17.024;2022-10-16T02:38:43;14.80;84.70
70244;DHT22;57634;51.136;17.024;2022-10-16T02:41:45;14.80;84.70
70244;DHT22;57634;51.136;17.024;2022-10-16T02:44:46;14.80;84.70
70244;DHT22;57634;51.136;17.024;2022-10-16T02:47:48;14.70;84.70
70244;DHT22;57634;51.136;17.024;2022-10-16T02:50:50;14.70;84.80
70244;DHT22;57634;51.136;17.024;2022-10-16T02:53:52;14.70;84.80
70244;DHT22;57634;51.136;17.024;2022-10-16T02:56:53;14.70;84.80
70244;DHT22;57634;51.136;17.024;2022-10-16T02:59:54;14.70;84.80
70244;DHT22;57634;51.136;17.024;2022-10-16T03:02:56;14.70;84.90
70244;DHT22;57634;51.136;17.024;2022-10-16T03:05:57;14.70;84.90
70244;DHT22;57634;51.136;17.024;2022-10-16T03:08:59;14.70;85.00
70244;DHT22;57634;51.136;17.024;2022-10-16T03:12:27;14.70;85.10
70244;DHT22;57634;51.136;17.024;2022-10-16T03:15:28;14.70;85.10
70244;DHT22;57634;51.136;17.024;2022-10-16T03:18:29;14.60;85.10
70244;DHT22;57634;51.136;17.024;2022-10-16T03:21:31;14.60;85.10
70244;DHT22;57634;51.136;17.024;2022-10-16T03:24:32;14.60;85.20
70244;DHT22;57634;51.136;17.024;2022-10-16T03:27:34;14.60;85.30
70244;DHT22;57634;51.136;17.024;2022-10-16T03:30:35;14.60;85.40
70244;DHT22;57634;51.136;17.024;2022-10-16T03:33:37;14.70;85.50
70244;DHT22;57634;51.136;17.024;2022-10-16T03:36:38;14.70;85.60
70244;DHT22;57634;51.136;17.024;2022-10-16T03:39:39;14.70;85.70
70244;DHT22;57634;51.136;17.024;2022-10-16T03:42:42;14.70;85.80
70244;DHT22;57634;51.136;17.024;2022-10-16T03:45:44;14.80;85.90
70244;DHT22;57634;51.136;17.024;2022-10-16T03:48:45;14.80;86.00
70244;DHT22;57634;51.136;17.024;2022-10-16T03:51:46;14.90;86.00
70244;DHT22;57634;51.136;17.024;2022-10-16T03:55:14;15.00;85.90
70244;DHT22;57634;51.136;17.024;2022-10-16T03:58:15;15.00;85.80
70244;DHT22;57634;51.136;17.024;2022-10-16T04:01:17;15.10;85.70
70244;DHT22;57634;51.136;17.024;2022-10-16T04:04:18;15.10;85.60
70244;DHT22;57634;51.136;17.024;2022-10-16T04:07:19;15.10;85.60
70244;DHT22;57634;51.136;17.024;2022-10-16T04:10:21;15.10;85.50
70244;DHT22;57634;51.136;17.024;2022-10-16T04:13:23;15.10;85.40
70244;DHT22;57634;51.136;17.024;2022-10-16T04:16:25;15.20;85.40
70244;DHT22;57634;51.136;17.024;2022-10-16T04:19:26;15.20;85.30
70244;DHT22;57634;51.136;17.024;2022-10-16T04:22:28;15.20;85.30
70244;DHT22;57634;51.136;17.024;2022-10-16T04:25:30;15.20;85.20
70244;DHT22;57634;51.136;17.024;2022-10-16T04:28:32;15.20;85.10
70244;DHT22;57634;51.136;17.024;2022-10-16T04:31:34;15.20;85.00
70244;DHT22;57634;51.136;17.024;2022-10-16T04:34:36;15.20;85.00
70244;DHT22;57634;51.136;17.024;2022-10-16T04:38:05;15.10;85.00
70244;DHT22;57634;51.136;17.024;2022-10-16T04:41:07;15.10;85.20
70244;DHT22;57634;51.136;17.024;2022-10-16T04:44:08;15.10;85.40
70244;DHT22;57634;51.136;17.024;2022-10-16T04:47:09;15.10;85.40
70244;DHT22;57634;51.136;17.024;2022-10-16T04:50:11;15.20;85.40
70244;DHT22;57634;51.136;17.024;2022-10-16T04:53:12;15.20;85.20
70244;DHT22;57634;51.136;17.024;2022-10-16T04:56:14;15.20;85.10
70244;DHT22;57634;51.136;17.024;2022-10-16T04:59:17;15.20;85.00
70244;DHT22;57634;51.136;17.024;2022-10-16T05:02:19;15.20;84.90
70244;DHT22;57634;51.136;17.024;2022-10-16T05:05:20;15.10;84.90
70244;DHT22;57634;51.136;17.024;2022-10-16T05:08:22;15.10;84.90
70244;DHT22;57634;51.136;17.024;2022-10-16T05:11:24;15.00;84.90
70244;DHT22;57634;51.136;17.024;2022-10-16T05:14:25;15.00;85.00
70244;DHT22;57634;51.136;17.024;2022-10-16T05:17:26;14.90;84.90
70244;DHT22;57634;51.136;17.024;2022-10-16T05:20:54;14.90;85.00
70244;DHT22;57634;51.136;17.024;2022-10-16T05:23:56;14.90;85.10
70244;DHT22;57634;51.136;17.024;2022-10-16T05:26:57;14.90;85.20
70244;DHT22;57634;51.136;17.024;2022-10-16T05:29:59;14.80;85.20
70244;DHT22;57634;51.136;17.024;2022-10-16T05:33:00;14.80;85.20
70244;DHT22;57634;51.136;17.024;2022-10-16T05:36:04;14.80;85.30
70244;DHT22;57634;51.136;17.024;2022-10-16T05:39:07;14.80;85.40
70244;DHT22;57634;51.136;17.024;2022-10-16T05:42:08;14.80;85.40
70244;DHT22;57634;51.136;17.024;2022-10-16T05:45:11;14.80;85.40
70244;DHT22;57634;51.136;17.024;2022-10-16T05:48:13;14.80;85.50
70244;DHT22;57634;51.136;17.024;2022-10-16T05:51:14;14.80;85.40
70244;DHT22;57634;51.136;17.024;2022-10-16T05:54:16;14.80;85.30
70244;DHT22;57634;51.136;17.024;2022-10-16T05:57:18;14.90;85.30
70244;DHT22;57634;51.136;17.024;2022-10-16T06:03:58;15.00;85.10
70244;DHT22;57634;51.136;17.024;2022-10-16T06:07:00;15.00;85.10
70244;DHT22;57634;51.136;17.024;2022-10-16T06:10:02;15.10;85.00
70244;DHT22;57634;51.136;17.024;2022-10-16T06:13:04;15.20;85.00
70244;DHT22;57634;51.136;17.024;2022-10-16T06:16:06;15.30;84.90
70244;DHT22;57634;51.136;17.024;2022-10-16T06:19:07;15.40;84.70
70244;DHT22;57634;51.136;17.024;2022-10-16T06:22:10;15.50;84.50
70244;DHT22;57634;51.136;17.024;2022-10-16T06:25:11;15.60;84.30
70244;DHT22;57634;51.136;17.024;2022-10-16T06:28:14;15.60;84.10
70244;DHT22;57634;51.136;17.024;2022-10-16T06:31:17;15.70;83.80
70244;DHT22;57634;51.136;17.024;2022-10-16T06:34:44;15.80;83.50
70244;DHT22;57634;51.136;17.024;2022-10-16T06:37:46;15.80;83.50
70244;DHT22;57634;51.136;17.024;2022-10-16T06:40:47;15.90;83.40
70244;DHT22;57634;51.136;17.024;2022-10-16T06:43:49;15.90;83.30
70244;DHT22;57634;51.136;17.024;2022-10-16T06:46:51;16.10;83.10
70244;DHT22;57634;51.136;17.024;2022-10-16T06:49:53;16.10;82.80
70244;DHT22;57634;51.136;17.024;2022-10-16T06:52:54;16.20;82.60
70244;DHT22;57634;51.136;17.024;2022-10-16T06:55:55;16.20;82.40
70244;DHT22;57634;51.136;17.024;2022-10-16T06:58:57;16.30;82.30
70244;DHT22;57634;51.136;17.024;2022-10-16T07:01:58;16.30;82.10
70244;DHT22;57634;51.136;17.024;2022-10-16T07:04:59;16.40;82.10
70244;DHT22;57634;51.136;17.024;2022-10-16T07:08:01;16.40;82.00
70244;DHT22;57634;51.136;17.024;2022-10-16T07:11:09;16.50;81.90
70244;DHT22;57634;51.136;17.024;2022-10-16T07:14:37;16.50;81.80
70244;DHT22;57634;51.136;17.024;2022-10-16T07:17:38;16.60;81.70
70244;DHT22;57634;51.136;17.024;2022-10-16T07:20:40;16.60;81.50
70244;DHT22;57634;51.136;17.024;2022-10-16T07:23:41;16.70;81.60
70244;DHT22;57634;51.136;17.024;2022-10-16T07:26:44;16.80;81.50
70244;DHT22;57634;51.136;17.024;2022-10-16T07:29:47;16.90;81.50
70244;DHT22;57634;51.136;17.024;2022-10-16T07:32:48;17.10;81.40
70244;DHT22;57634;51.136;17.024;2022-10-16T07:35:53;17.30;80.90
70244;DHT22;57634;51.136;17.024;2022-10-16T07:38:55;17.40;80.50
70244;DHT22;57634;51.136;17.024;2022-10-16T07:41:57;17.60;79.80
70244;DHT22;57634;51.136;17.024;2022-10-16T07:44:58;17.80;79.40
70244;DHT22;57634;51.136;17.024;2022-10-16T07:47:59;17.90;78.70
70244;DHT22;57634;51.136;17.024;2022-10-16T07:51:03;18.00;78.20
70244;DHT22;57634;51.136;17.024;2022-10-16T07:54:30;18.10;77.90
70244;DHT22;57634;51.136;17.024;2022-10-16T07:57:32;18.20;77.70
70244;DHT22;57634;51.136;17.024;2022-10-16T08:00:33;18.30;77.40
70244;DHT22;57634;51.136;17.024;2022-10-16T08:03:35;18.40;77.10
70244;DHT22;57634;51.136;17.024;2022-10-16T08:06:39;18.50;76.80
70244;DHT22;57634;51.136;17.024;2022-10-16T08:09:41;18.70;76.30
70244;DHT22;57634;51.136;17.024;2022-10-16T08:12:42;18.80;76.00
70244;DHT22;57634;51.136;17.024;2022-10-16T08:15:44;19.00;75.60
70244;DHT22;57634;51.136;17.024;2022-10-16T08:18:45;19.30;75.20
70244;DHT22;57634;51.136;17.024;2022-10-16T08:21:47;19.60;74.50
70244;DHT22;57634;51.136;17.024;2022-10-16T08:24:49;19.80;73.30
70244;DHT22;57634;51.136;17.024;2022-10-16T08:27:51;19.90;72.70
70244;DHT22;57634;51.136;17.024;2022-10-16T08:30:52;20.00;72.10
70244;DHT22;57634;51.136;17.024;2022-10-16T08:33:54;20.10;71.60
70244;DHT22;57634;51.136;17.024;2022-10-16T08:37:21;20.10;71.50
70244;DHT22;57634;51.136;17.024;2022-10-16T08:40:28;20.10;71.10
70244;DHT22;57634;51.136;17.024;2022-10-16T08:43:43;20.10;70.70
70244;DHT22;57634;51.136;17.024;2022-10-16T08:46:59;20.10;70.80
70244;DHT22;57634;51.136;17.024;2022-10-16T08:50:10;20.10;70.90
70244;DHT22;57634;51.136;17.024;2022-10-16T08:53:45;20.20;70.60
70244;DHT22;57634;51.136;17.024;2022-10-16T08:56:48;20.30;70.10
70244;DHT22;57634;51.136;17.024;2022-10-16T08:59:49;20.30;70.00
70244;DHT22;57634;51.136;17.024;2022-10-16T09:16:19;20.90;68.50
70244;DHT22;57634;51.136;17.024;2022-10-16T09:19:31;21.00;68.40
70244;DHT22;57634;51.136;17.024;2022-10-16T09:22:35;21.10;68.20
70244;DHT22;57634;51.136;17.024;2022-10-16T09:25:38;21.20;67.70
70244;DHT22;57634;51.136;17.024;2022-10-16T09:28:41;21.30;67.50
70244;DHT22;57634;51.136;17.024;2022-10-16T09:32:15;21.40;67.20
70244;DHT22;57634;51.136;17.024;2022-10-16T09:35:36;21.50;66.80
70244;DHT22;57634;51.136;17.024;2022-10-16T09:38:35;21.60;66.80
70244;DHT22;57634;51.136;17.024;2022-10-16T09:41:42;21.80;66.30
70244;DHT22;57634;51.136;17.024;2022-10-16T09:44:50;21.90;65.50
70244;DHT22;57634;51.136;17.024;2022-10-16T09:47:51;22.00;64.90
70244;DHT22;57634;51.136;17.024;2022-10-16T09:54:36;22.10;64.50
70244;DHT22;57634;51.136;17.024;2022-10-16T09:57:37;22.30;64.10
70244;DHT22;57634;51.136;17.024;2022-10-16T10:00:49;22.50;64.00
70244;DHT22;57634;51.136;17.024;2022-10-16T10:03:56;22.70;63.40
70244;DHT22;57634;51.136;17.024;2022-10-16T10:07:03;23.00;63.00
70244;DHT22;57634;51.136;17.024;2022-10-16T10:10:32;23.30;62.30
70244;DHT22;57634;51.136;17.024;2022-10-16T10:13:34;23.60;60.90
70244;DHT22;57634;51.136;17.024;2022-10-16T10:16:35;23.70;60.00
70244;DHT22;57634;51.136;17.024;2022-10-16T10:22:50;23.80;59.40
70244;DHT22;57634;51.136;17.024;2022-10-16T10:39:18;24.30;57.90
70244;DHT22;57634;51.136;17.024;2022-10-16T10:42:28;24.40;57.50
70244;DHT22;57634;51.136;17.024;2022-10-16T10:45:41;24.50;57.20
70244;DHT22;57634;51.136;17.024;2022-10-16T10:52:41;24.60;56.20
70244;DHT22;57634;51.136;17.024;2022-10-16T10:59:01;24.60;55.90
70244;DHT22;57634;51.136;17.024;2022-10-16T11:02:37;24.50;55.90
70244;DHT22;57634;51.136;17.024;2022-10-16T11:05:43;24.40;55.90
70244;DHT22;57634;51.136;17.024;2022-10-16T11:08:52;24.40;55.90
70244;DHT22;57634;51.136;17.024;2022-10-16T11:11:58;24.50;55.80
70244;DHT22;57634;51.136;17.024;2022-10-16T11:18:22;24.70;55.30
70244;DHT22;57634;51.136;17.024;2022-10-16T11:22:01;24.70;54.90
70244;DHT22;57634;51.136;17.024;2022-10-16T11:25:13;24.50;54.50
70244;DHT22;57634;51.136;17.024;2022-10-16T11:28:19;24.30;54.90
70244;DHT22;57634;51.136;17.024;2022-10-16T11:34:44;24.00;56.00
70244;DHT22;57634;51.136;17.024;2022-10-16T11:44:55;23.90;55.90
70244;DHT22;57634;51.136;17.024;2022-10-16T11:51:43;23.70;56.30
70244;DHT22;57634;51.136;17.024;2022-10-16T11:58:15;23.50;56.70
70244;DHT22;57634;51.136;17.024;2022-10-16T12:01:22;23.50;57.10
70244;DHT22;57634;51.136;17.024;2022-10-16T12:04:39;23.50;57.30
70244;DHT22;57634;51.136;17.024;2022-10-16T12:08:16;23.50;57.30
70244;DHT22;57634;51.136;17.024;2022-10-16T12:11:31;23.40;57.10
70244;DHT22;57634;51.136;17.024;2022-10-16T12:14:37;23.30;57.20
70244;DHT22;57634;51.136;17.024;2022-10-16T12:17:40;23.30;57.50
70244;DHT22;57634;51.136;17.024;2022-10-16T12:20:41;23.20;57.70
70244;DHT22;57634;51.136;17.024;2022-10-16T12:23:54;23.10;58.00
70244;DHT22;57634;51.136;17.024;2022-10-16T12:27:31;22.90;58.10
70244;DHT22;57634;51.136;17.024;2022-10-16T12:30:36;22.80;58.60
70244;DHT22;57634;51.136;17.024;2022-10-16T12:33:51;22.70;58.90
70244;DHT22;57634;51.136;17.024;2022-10-16T12:36:50;22.60;59.10
70244;DHT22;57634;51.136;17.024;2022-10-16T12:39:53;22.60;59.50
70244;DHT22;57634;51.136;17.024;2022-10-16T12:42:55;22.50;59.70
70244;DHT22;57634;51.136;17.024;2022-10-16T12:46:04;22.40;60.00
70244;DHT22;57634;51.136;17.024;2022-10-16T12:49:37;22.40;60.30
70244;DHT22;57634;51.136;17.024;2022-10-16T12:52:42;22.30;60.70
70244;DHT22;57634;51.136;17.024;2022-10-16T12:56:00;22.40;60.80
70244;DHT22;57634;51.136;17.024;2022-10-16T13:02:26;22.40;60.70
70244;DHT22;57634;51.136;17.024;2022-10-16T13:06:07;22.40;60.80
70244;DHT22;57634;51.136;17.024;2022-10-16T13:15:43;22.20;61.30
70244;DHT22;57634;51.136;17.024;2022-10-16T13:28:52;22.10;61.90
70244;DHT22;57634;51.136;17.024;2022-10-16T13:31:53;22.10;62.00
70244;DHT22;57634;51.136;17.024;2022-10-16T13:34:55;22.20;62.10
70244;DHT22;57634;51.136;17.024;2022-10-16T13:38:26;22.20;62.00
70244;DHT22;57634;51.136;17.024;2022-10-16T13:41:28;22.10;61.80
70244;DHT22;57634;51.136;17.024;2022-10-16T13:44:39;22.10;61.80
70244;DHT22;57634;51.136;17.024;2022-10-16T13:47:40;22.00;61.90
70244;DHT22;57634;51.136;17.024;2022-10-16T13:50:41;22.00;62.20
70244;DHT22;57634;51.136;17.024;2022-10-16T13:53:44;22.00;62.30
70244;DHT22;57634;51.136;17.024;2022-10-16T13:56:46;22.10;62.50
70244;DHT22;57634;51.136;17.024;2022-10-16T13:59:47;22.20;62.50
70244;DHT22;57634;51.136;17.024;2022-10-16T14:02:57;22.10;62.30
70244;DHT22;57634;51.136;17.024;2022-10-16T14:08:00;22.20;62.40
70244;DHT22;57634;51.136;17.024;2022-10-16T14:11:02;22.20;62.50
70244;DHT22;57634;51.136;17.024;2022-10-16T14:14:03;22.10;62.40
70244;DHT22;57634;51.136;17.024;2022-10-16T14:17:05;22.10;62.50
70244;DHT22;57634;51.136;17.024;2022-10-16T14:20:12;22.10;62.70
70244;DHT22;57634;51.136;17.024;2022-10-16T14:26:40;22.00;62.90
70244;DHT22;57634;51.136;17.024;2022-10-16T14:30:16;22.00;63.00
70244;DHT22;57634;51.136;17.024;2022-10-16T14:33:24;21.90;63.30
70244;DHT22;57634;51.136;17.024;2022-10-16T14:36:28;21.90;63.50
70244;DHT22;57634;51.136;17.024;2022-10-16T14:39:30;21.80;63.60
70244;DHT22;57634;51.136;17.024;2022-10-16T14:42:31;21.80;63.70
70244;DHT22;57634;51.136;17.024;2022-10-16T14:45:34;21.70;63.70
70244;DHT22;57634;51.136;17.024;2022-10-16T14:48:41;21.80;63.90
70244;DHT22;57634;51.136;17.024;2022-10-16T14:51:43;21.70;63.80
70244;DHT22;57634;51.136;17.024;2022-10-16T14:55:14;21.70;63.90
70244;DHT22;57634;51.136;17.024;2022-10-16T14:58:20;21.80;64.10
70244;DHT22;57634;51.136;17.024;2022-10-16T15:01:22;21.70;64.20
70244;DHT22;57634;51.136;17.024;2022-10-16T15:04:24;21.80;64.40
70244;DHT22;57634;51.136;17.024;2022-10-16T15:07:26;21.70;64.30
70244;DHT22;57634;51.136;17.024;2022-10-16T15:10:28;21.70;64.40
70244;DHT22;57634;51.136;17.024;2022-10-16T15:13:30;21.60;64.50
70244;DHT22;57634;51.136;17.024;2022-10-16T15:16:31;21.60;64.50
70244;DHT22;57634;51.136;17.024;2022-10-16T15:19:32;21.60;64.70
70244;DHT22;57634;51.136;17.024;2022-10-16T15:22:35;21.50;64.70
70244;DHT22;57634;51.136;17.024;2022-10-16T15:25:42;21.50;64.90
70244;DHT22;57634;51.136;17.024;2022-10-16T15:29:11;21.40;65.00
70244;DHT22;57634;51.136;17.024;2022-10-16T15:32:13;21.30;65.30
70244;DHT22;57634;51.136;17.024;2022-10-16T15:35:15;21.30;65.50
70244;DHT22;57634;51.136;17.024;2022-10-16T15:38:18;21.20;65.70
70244;DHT22;57634;51.136;17.024;2022-10-16T15:41:20;21.10;65.80
70244;DHT22;57634;51.136;17.024;2022-10-16T15:44:21;21.10;66.10
70244;DHT22;57634;51.136;17.024;2022-10-16T15:47:31;21.00;66.30
70244;DHT22;57634;51.136;17.024;2022-10-16T15:50:32;21.00;66.40
70244;DHT22;57634;51.136;17.024;2022-10-16T15:53:35;20.90;66.60
70244;DHT22;57634;51.136;17.024;2022-10-16T15:56:36;20.90;66.80
70244;DHT22;57634;51.136;17.024;2022-10-16T15:59:37;20.80;67.00
70244;DHT22;57634;51.136;17.024;2022-10-16T16:03:07;20.70;67.10
70244;DHT22;57634;51.136;17.024;2022-10-16T16:06:11;20.70;67.50
70244;DHT22;57634;51.136;17.024;2022-10-16T16:09:14;20.60;67.80
70244;DHT22;57634;51.136;17.024;2022-10-16T16:12:15;20.60;67.90
70244;DHT22;57634;51.136;17.024;2022-10-16T16:15:17;20.60;68.10
70244;DHT22;57634;51.136;17.024;2022-10-16T16:18:19;20.50;68.20
70244;DHT22;57634;51.136;17.024;2022-10-16T16:21:21;20.50;68.30
70244;DHT22;57634;51.136;17.024;2022-10-16T16:24:22;20.50;68.50
70244;DHT22;57634;51.136;17.024;2022-10-16T16:27:23;20.40;68.60
70244;DHT22;57634;51.136;17.024;2022-10-16T16:30:25;20.40;68.80
70244;DHT22;57634;51.136;17.024;2022-10-16T16:33:27;20.40;68.90
70244;DHT22;57634;51.136;17.024;2022-10-16T16:36:28;20.30;69.00
70244;DHT22;57634;51.136;17.024;2022-10-16T16:39:30;20.30;69.10
70244;DHT22;57634;51.136;17.024;2022-10-16T16:42:58;20.30;69.20
70244;DHT22;57634;51.136;17.024;2022-10-16T16:46:01;20.30;69.40
70244;DHT22;57634;51.136;17.024;2022-10-16T16:49:03;20.20;69.50
70244;DHT22;57634;51.136;17.024;2022-10-16T16:52:05;20.20;69.70
70244;DHT22;57634;51.136;17.024;2022-10-16T16:55:07;20.20;69.70
70244;DHT22;57634;51.136;17.024;2022-10-16T16:58:08;20.10;69.80
70244;DHT22;57634;51.136;17.024;2022-10-16T17:01:10;20.10;69.90
70244;DHT22;57634;51.136;17.024;2022-10-16T17:04:12;20.10;70.00
70244;DHT22;57634;51.136;17.024;2022-10-16T17:07:16;20.00;70.10
70244;DHT22;57634;51.136;17.024;2022-10-16T17:10:17;20.00;70.30
70244;DHT22;57634;51.136;17.024;2022-10-16T17:13:19;19.90;70.40
70244;DHT22;57634;51.136;17.024;2022-10-16T17:16:26;19.90;70.50
70244;DHT22;57634;51.136;17.024;2022-10-16T17:19:53;19.80;70.60
70244;DHT22;57634;51.136;17.024;2022-10-16T17:22:55;19.80;71.00
70244;DHT22;57634;51.136;17.024;2022-10-16T17:26:06;19.70;71.20
70244;DHT22;57634;51.136;17.024;2022-10-16T17:29:11;19.60;71.40
70244;DHT22;57634;51.136;17.024;2022-10-16T17:32:13;19.60;71.60
70244;DHT22;57634;51.136;17.024;2022-10-16T17:35:15;19.60;71.80
70244;DHT22;57634;51.136;17.024;2022-10-16T17:38:17;19.50;71.90
70244;DHT22;57634;51.136;17.024;2022-10-16T17:41:21;19.50;72.00
70244;DHT22;57634;51.136;17.024;2022-10-16T17:44:23;19.40;72.10
70244;DHT22;57634;51.136;17.024;2022-10-16T17:47:24;19.40;72.20
70244;DHT22;57634;51.136;17.024;2022-10-16T17:50:53;19.40;72.40
70244;DHT22;57634;51.136;17.024;2022-10-16T17:53:57;19.30;72.60
70244;DHT22;57634;51.136;17.024;2022-10-16T17:56:58;19.30;72.70
70244;DHT22;57634;51.136;17.024;2022-10-16T17:59:59;19.30;72.80
70244;DHT22;57634;51.136;17.024;2022-10-16T18:03:03;19.30;72.90
70244;DHT22;57634;51.136;17.024;2022-10-16T18:06:04;19.30;73.00
70244;DHT22;57634;51.136;17.024;2022-10-16T18:09:08;19.20;73.00
70244;DHT22;57634;51.136;17.024;2022-10-16T18:12:10;19.20;73.10
70244;DHT22;57634;51.136;17.024;2022-10-16T18:15:12;19.20;73.20
70244;DHT22;57634;51.136;17.024;2022-10-16T18:18:13;19.20;73.20
70244;DHT22;57634;51.136;17.024;2022-10-16T18:21:17;19.20;73.30
70244;DHT22;57634;51.136;17.024;2022-10-16T18:24:18;19.10;73.30
70244;DHT22;57634;51.136;17.024;2022-10-16T18:27:46;19.10;73.40
70244;DHT22;57634;51.136;17.024;2022-10-16T18:34:02;19.00;73.70
70244;DHT22;57634;51.136;17.024;2022-10-16T18:37:03;19.10;73.80
70244;DHT22;57634;51.136;17.024;2022-10-16T18:40:05;19.00;73.80
70244;DHT22;57634;51.136;17.024;2022-10-16T18:43:06;19.10;73.80
70244;DHT22;57634;51.136;17.024;2022-10-16T18:46:13;19.00;73.80
70244;DHT22;57634;51.136;17.024;2022-10-16T18:49:15;19.00;73.80
70244;DHT22;57634;51.136;17.024;2022-10-16T18:52:16;18.90;73.90
70244;DHT22;57634;51.136;17.024;2022-10-16T18:55:17;18.90;74.00
70244;DHT22;57634;51.136;17.024;2022-10-16T18:58:46;18.90;74.10
70244;DHT22;57634;51.136;17.024;2022-10-16T19:01:53;18.80;74.20
70244;DHT22;57634;51.136;17.024;2022-10-16T19:04:54;18.80;74.30
70244;DHT22;57634;51.136;17.024;2022-10-16T19:07:56;18.80;74.40
70244;DHT22;57634;51.136;17.024;2022-10-16T19:11:04;18.80;74.50
70244;DHT22;57634;51.136;17.024;2022-10-16T19:14:06;18.80;74.60
70244;DHT22;57634;51.136;17.024;2022-10-16T19:17:07;18.70;74.60
70244;DHT22;57634;51.136;17.024;2022-10-16T19:20:09;18.70;74.70
70244;DHT22;57634;51.136;17.024;2022-10-16T19:23:10;18.70;74.70
70244;DHT22;57634;51.136;17.024;2022-10-16T19:26:14;18.70;74.70
70244;DHT22;57634;51.136;17.024;2022-10-16T19:29:16;18.70;74.70
70244;DHT22;57634;51.136;17.024;2022-10-16T19:32:44;18.60;74.70
70244;DHT22;57634;51.136;17.024;2022-10-16T19:35:52;18.60;74.90
70244;DHT22;57634;51.136;17.024;2022-10-16T19:38:55;18.50;74.90
70244;DHT22;57634;51.136;17.024;2022-10-16T19:41:57;18.50;75.00
70244;DHT22;57634;51.136;17.024;2022-10-16T19:44:58;18.50;75.10
70244;DHT22;57634;51.136;17.024;2022-10-16T19:47:59;18.40;75.10
70244;DHT22;57634;51.136;17.024;2022-10-16T19:51:01;18.40;75.20
70244;DHT22;57634;51.136;17.024;2022-10-16T19:54:05;18.40;75.40
70244;DHT22;57634;51.136;17.024;2022-10-16T19:57:08;18.30;75.40
70244;DHT22;57634;51.136;17.024;2022-10-16T20:00:10;18.30;75.40
70244;DHT22;57634;51.136;17.024;2022-10-16T20:03:11;18.30;75.50
70244;DHT22;57634;51.136;17.024;2022-10-16T20:06:40;18.20;75.50
70244;DHT22;57634;51.136;17.024;2022-10-16T20:09:42;18.20;75.70
70244;DHT22;57634;51.136;17.024;2022-10-16T20:12:43;18.20;75.80
70244;DHT22;57634;51.136;17.024;2022-10-16T20:15:45;18.20;75.90
70244;DHT22;57634;51.136;17.024;2022-10-16T20:18:49;18.20;75.90
70244;DHT22;57634;51.136;17.024;2022-10-16T20:21:50;18.20;75.90
70244;DHT22;57634;51.136;17.024;2022-10-16T20:24:52;18.10;76.00
70244;DHT22;57634;51.136;17.024;2022-10-16T20:27:53;18.10;76.00
70244;DHT22;57634;51.136;17.024;2022-10-16T20:30:55;18.10;76.10
70244;DHT22;57634;51.136;17.024;2022-10-16T20:33:59;18.00;76.10
70244;DHT22;57634;51.136;17.024;2022-10-16T20:37:01;18.00;76.20
70244;DHT22;57634;51.136;17.024;2022-10-16T20:40:03;18.00;76.30
70244;DHT22;57634;51.136;17.024;2022-10-16T20:43:05;18.00;76.40
70244;DHT22;57634;51.136;17.024;2022-10-16T20:46:33;17.90;76.50
70244;DHT22;57634;51.136;17.024;2022-10-16T20:49:35;17.90;76.70
70244;DHT22;57634;51.136;17.024;2022-10-16T20:52:36;17.90;76.80
70244;DHT22;57634;51.136;17.024;2022-10-16T20:55:38;17.90;76.80
70244;DHT22;57634;51.136;17.024;2022-10-16T20:58:39;17.90;76.90
70244;DHT22;57634;51.136;17.024;2022-10-16T21:01:41;17.80;76.90
70244;DHT22;57634;51.136;17.024;2022-10-16T21:04:46;17.80;76.90